Time;durP1;ratioP1;P1;durP2;ratioP2;P2;SDS_P1;SDS_P2;PMS_P1;PMS_P2;Temp;Humidity;BMP_temperature;BMP_pressure;BME280_temperature;BME280_humidity;BME280_pressure;Samples;Min_cycle;Max_cycle;Signal;HPM_P1;HPM_P2
2022/05/11 00:01:46;;;;;;;5.87;3.30;;;;;;;10.38;86.99;99413.45;1693218;84;20969;-80
2022/05/11 00:04:13;;;;;;;8.43;3.00;;;;;;;10.37;86.27;99415.66;1698442;84;21330;-79
2022/05/11 00:06:40;;;;;;;4.75;2.83;;;;;;;10.38;86.38;99410.86;1695047;84;21517;-77
2022/05/11 00:09:09;;;;;;;15.80;3.22;;;;;;;10.37;86.79;99414.36;1698212;84;20984;-80
2022/05/11 00:11:36;;;;;;;8.80;3.35;;;;;;;10.39;87.14;99419.08;1691468;84;21005;-79
2022/05/11 00:14:04;;;;;;;8.85;2.90;;;;;;;10.41;86.35;99426.41;1699030;83;20940;-78
2022/05/11 00:16:31;;;;;;;8.98;3.95;;;;;;;10.40;87.23;99420.78;1691995;84;21009;-78
2022/05/11 00:18:58;;;;;;;9.73;3.15;;;;;;;10.41;87.32;99423.81;1698470;84;20952;-79
2022/05/11 00:21:24;;;;;;;6.58;2.92;;;;;;;10.42;86.05;99417.70;1694698;84;20998;-77
2022/05/11 00:23:53;;;;;;;7.97;3.25;;;;;;;10.40;87.22;99417.33;1694374;84;20983;-78
2022/05/11 00:26:20;;;;;;;6.33;3.50;;;;;;;10.37;87.90;99414.81;1694985;84;21022;-81
2022/05/11 00:28:47;;;;;;;5.92;3.17;;;;;;;10.42;86.92;99412.52;1699066;83;20968;-78
2022/05/11 00:31:14;;;;;;;4.17;2.70;;;;;;;10.41;87.13;99406.91;1692648;83;21005;-81
2022/05/11 00:33:40;;;;;;;5.25;2.80;;;;;;;10.39;86.49;99404.80;1689837;84;20969;-81
2022/05/11 00:36:13;;;;;;;5.33;2.80;;;;;;;10.38;86.81;99406.96;1694736;84;21055;-77
2022/05/11 00:38:40;;;;;;;5.67;2.75;;;;;;;10.33;87.57;99408.81;1696042;84;21659;-78
2022/05/11 00:41:07;;;;;;;11.90;2.72;;;;;;;10.33;86.67;99411.41;1698886;84;20980;-79
2022/05/11 00:43:57;;;;;;;5.03;2.90;;;;;;;10.31;86.26;99414.03;1694833;84;20954;-81
2022/05/11 00:46:44;;;;;;;6.65;2.95;;;;;;;10.31;86.83;99412.73;1697066;84;20964;-77
2022/05/11 00:49:38;;;;;;;5.78;2.65;;;;;;;10.26;87.14;99410.61;1690091;84;21044;-80
2022/05/11 00:52:22;;;;;;;6.90;2.75;;;;;;;10.25;87.30;99416.71;1697001;84;20988;-79
2022/05/11 00:55:02;;;;;;;6.22;3.65;;;;;;;10.24;87.26;99416.73;1676433;83;21005;-77
2022/05/11 00:57:34;;;;;;;5.53;3.05;;;;;;;10.21;87.42;99410.31;1679289;84;21004;-80
2022/05/11 01:00:04;;;;;;;7.00;3.02;;;;;;;10.21;87.54;99412.46;1691715;83;20995;-79
2022/05/11 01:02:30;;;;;;;7.83;3.62;;;;;;;10.21;87.38;99412.91;1684702;84;20976;-79
2022/05/11 01:05:01;;;;;;;6.45;2.83;;;;;;;10.23;86.99;99412.44;1697439;83;20996;-83
2022/05/11 01:07:29;;;;;;;6.28;3.47;;;;;;;10.20;87.79;99406.83;1696593;83;20984;-78
2022/05/11 01:09:56;;;;;;;6.20;3.47;;;;;;;10.21;88.21;99409.02;1697703;84;21027;-77
2022/05/11 01:12:29;;;;;;;6.17;3.42;;;;;;;10.22;88.30;99410.71;1692467;84;21024;-77
2022/05/11 01:15:00;;;;;;;5.92;3.40;;;;;;;10.20;87.22;99408.13;1687752;84;20978;-79
2022/05/11 01:17:32;;;;;;;6.53;3.55;;;;;;;10.22;86.83;99411.56;1692011;83;21063;-78
2022/05/11 01:19:59;;;;;;;6.45;3.37;;;;;;;10.21;86.90;99413.76;1681342;84;20993;-77
2022/05/11 01:22:49;;;;;;;8.83;3.52;;;;;;;10.19;87.33;99421.17;1692798;84;20955;-78
2022/05/11 01:25:17;;;;;;;5.50;3.17;;;;;;;10.18;88.14;99418.15;1694222;83;20992;-80
2022/05/11 01:27:46;;;;;;;8.93;3.52;;;;;;;10.16;88.14;99418.17;1697186;83;21424;-78
2022/05/11 01:30:24;;;;;;;7.03;3.58;;;;;;;10.16;87.42;99422.91;1686053;83;21004;-78
2022/05/11 01:32:54;;;;;;;7.55;3.58;;;;;;;10.22;86.15;99418.05;1675740;84;20984;-77
2022/05/11 01:35:50;;;;;;;6.87;3.87;;;;;;;10.18;86.33;99419.00;1690708;83;20980;-78
2022/05/11 01:38:40;;;;;;;7.25;3.40;;;;;;;10.21;86.35;99420.26;1697209;84;20980;-77
2022/05/11 01:41:10;;;;;;;10.00;3.77;;;;;;;10.22;86.99;99427.15;1696733;84;21472;-76
2022/05/11 01:43:39;;;;;;;8.35;4.08;;;;;;;10.14;87.74;99419.94;1685035;84;20988;-78
2022/05/11 01:46:06;;;;;;;5.95;3.42;;;;;;;10.13;87.01;99419.09;1692881;84;20936;-79
2022/05/11 01:48:34;;;;;;;6.87;3.12;;;;;;;10.10;88.20;99418.28;1672744;83;21003;-81
2022/05/11 01:51:01;;;;;;;8.38;3.37;;;;;;;10.10;87.47;99423.03;1696332;84;21015;-78
2022/05/11 01:53:29;;;;;;;14.38;3.42;;;;;;;10.11;86.72;99427.81;1736195;81;20980;-82
2022/05/11 01:55:56;;;;;;;6.75;3.02;;;;;;;10.11;86.67;99427.36;1691675;85;21580;-77
2022/05/11 01:58:24;;;;;;;8.78;3.25;;;;;;;10.10;86.65;99421.73;1691943;83;21033;-80
2022/05/11 02:00:52;;;;;;;5.90;3.00;;;;;;;10.08;87.01;99417.00;1688237;84;21003;-79
2022/05/11 02:03:20;;;;;;;8.30;2.85;;;;;;;10.04;86.83;99417.95;1704794;83;21044;-79
2022/05/11 02:08:37;;;;;;;8.23;3.30;;;;;;;10.04;85.95;99415.34;1698882;84;20995;-80
2022/05/11 02:11:05;;;;;;;8.70;2.98;;;;;;;9.93;88.29;99418.15;1690007;84;21001;-80
2022/05/11 02:13:33;;;;;;;7.00;2.80;;;;;;;9.94;86.48;99419.00;1699529;83;20992;-76
2022/05/11 02:16:00;;;;;;;6.95;2.83;;;;;;;9.88;86.63;99412.61;1706025;84;20996;-79
2022/05/11 02:18:26;;;;;;;6.00;3.00;;;;;;;9.82;87.71;99413.56;1697602;84;21058;-79
2022/05/11 02:20:53;;;;;;;7.20;3.25;;;;;;;9.80;86.77;99417.08;1704018;84;20980;-79
2022/05/11 02:23:21;;;;;;;6.25;3.25;;;;;;;9.71;87.49;99414.21;1704229;83;20995;-81
2022/05/11 02:25:49;;;;;;;7.33;3.22;;;;;;;9.72;86.78;99418.50;1703880;84;20991;-80
2022/05/11 02:28:18;;;;;;;10.53;3.85;;;;;;;9.68;87.27;99416.39;1688729;84;20977;-80
2022/05/11 02:30:46;;;;;;;6.40;3.30;;;;;;;9.62;87.70;99416.50;1706568;84;20971;-81
2022/05/11 02:33:13;;;;;;;7.95;3.95;;;;;;;9.59;87.84;99418.28;1701057;84;21530;-83
2022/05/11 02:35:41;;;;;;;9.70;3.60;;;;;;;9.55;87.37;99420.09;1717175;83;21008;-81
2022/05/11 02:38:12;;;;;;;11.80;3.77;;;;;;;9.52;88.55;99420.13;1692196;84;21056;-76
2022/05/11 02:40:41;;;;;;;8.78;4.03;;;;;;;9.52;88.63;99419.67;1711490;83;21853;-80
2022/05/11 02:43:09;;;;;;;8.50;4.20;;;;;;;9.51;87.76;99428.77;1692976;84;21054;-77
2022/05/11 02:45:43;;;;;;;8.88;4.58;;;;;;;9.48;88.16;99431.44;1706523;83;20991;-79
2022/05/11 02:48:10;;;;;;;10.50;4.37;;;;;;;9.48;87.41;99428.84;1689273;84;21013;-80
2022/05/11 02:50:45;;;;;;;10.38;4.50;;;;;;;9.44;88.09;99428.02;1697404;84;20973;-79
2022/05/11 02:53:11;;;;;;;14.20;5.30;;;;;;;9.50;88.04;99432.27;1702866;84;21072;-77
2022/05/11 02:55:42;;;;;;;7.90;4.95;;;;;;;9.46;88.19;99428.86;1702923;84;20971;-80
2022/05/11 02:58:09;;;;;;;14.25;5.15;;;;;;;9.45;90.47;99431.05;1689901;84;21509;-77
2022/05/11 03:00:38;;;;;;;9.40;5.08;;;;;;;9.46;88.19;99431.90;1699242;83;21456;-80
2022/05/11 03:03:06;;;;;;;11.65;4.70;;;;;;;9.46;89.12;99428.00;1689936;84;21003;-79
2022/05/11 03:05:34;;;;;;;11.68;4.87;;;;;;;9.46;89.00;99434.05;1700458;84;20976;-77
2022/05/11 03:08:01;;;;;;;16.52;5.80;;;;;;;9.47;88.25;99438.38;1698458;84;21015;-80
2022/05/11 03:10:28;;;;;;;8.75;4.62;;;;;;;9.47;88.99;99443.98;1706751;83;20986;-78
2022/05/11 03:12:54;;;;;;;17.17;5.28;;;;;;;9.46;89.55;99438.39;1690144;84;21553;-77
2022/05/11 03:15:21;;;;;;;12.18;5.17;;;;;;;9.50;88.74;99446.09;1690412;84;20973;-77
2022/05/11 03:17:48;;;;;;;7.97;4.72;;;;;;;9.47;89.55;99453.06;1706506;83;21122;-78
2022/05/11 03:20:15;;;;;;;12.88;5.03;;;;;;;9.50;90.10;99456.92;1706843;83;20968;-78
2022/05/11 03:22:41;;;;;;;11.43;4.75;;;;;;;9.53;89.59;99462.08;1700655;84;21543;-77
2022/05/11 03:25:09;;;;;;;10.15;4.60;;;;;;;9.56;89.50;99462.02;1706625;83;20972;-77
2022/05/11 03:27:35;;;;;;;7.83;4.35;;;;;;;9.59;88.99;99467.18;1706521;83;21015;-78
2022/05/11 03:30:04;;;;;;;6.95;3.95;;;;;;;9.62;88.34;99467.56;1706698;84;20964;-80
2022/05/11 03:35:15;;;;;;;8.93;4.20;;;;;;;9.55;88.83;99462.91;1706623;83;21030;-80
2022/05/11 03:37:42;;;;;;;10.38;4.25;;;;;;;9.50;89.40;99467.30;1706683;83;21011;-78
2022/05/11 03:40:10;;;;;;;9.10;5.08;;;;;;;9.55;88.02;99469.41;1706718;83;20987;-80
2022/05/11 03:42:38;;;;;;;7.03;3.90;;;;;;;9.49;87.89;99464.27;1706610;83;21479;-78
2022/05/11 03:45:16;;;;;;;8.70;4.08;;;;;;;9.46;87.39;99470.38;1706708;83;20983;-78
2022/05/11 03:47:43;;;;;;;8.10;3.75;;;;;;;9.41;87.42;99474.80;1706710;84;21071;-79
2022/05/11 03:50:10;;;;;;;12.43;3.95;;;;;;;9.37;88.14;99471.83;1701658;83;21027;-78
2022/05/11 03:52:38;;;;;;;7.20;3.55;;;;;;;9.36;87.11;99478.73;1700511;83;21015;-78
2022/05/11 03:55:08;;;;;;;9.20;3.95;;;;;;;9.39;88.05;99482.16;1700645;84;20952;-80
2022/05/11 03:57:37;;;;;;;6.50;3.58;;;;;;;9.35;90.10;99477.45;1701051;83;21632;-76
2022/05/11 04:00:12;;;;;;;8.48;3.75;;;;;;;9.42;89.17;99484.28;1701189;84;21611;-78
2022/05/11 04:02:39;;;;;;;6.28;3.87;;;;;;;9.34;89.77;99488.27;1700575;84;21472;-80
2022/05/11 04:05:07;;;;;;;7.03;3.62;;;;;;;9.35;90.10;99482.22;1700605;84;21047;-81
2022/05/11 04:07:34;;;;;;;5.97;3.52;;;;;;;9.40;90.17;99487.34;1700592;84;21483;-77
2022/05/11 04:10:02;;;;;;;6.87;3.45;;;;;;;9.49;90.19;99493.70;1700646;84;21059;-79
2022/05/11 04:12:30;;;;;;;7.37;3.30;;;;;;;9.51;90.18;99491.95;1700624;84;21008;-79
2022/05/11 04:14:57;;;;;;;6.95;3.75;;;;;;;9.55;90.01;99497.51;1700636;84;21528;-77
2022/05/11 04:17:24;;;;;;;9.50;3.65;;;;;;;9.62;89.94;99502.61;1700499;84;21102;-77
2022/05/11 04:19:50;;;;;;;7.78;3.87;;;;;;;9.64;90.25;99504.29;1700603;84;20999;-78
2022/05/11 04:22:17;;;;;;;6.67;3.75;;;;;;;9.70;89.92;99502.90;1700497;84;21000;-79
2022/05/11 04:24:44;;;;;;;8.10;4.30;;;;;;;9.76;88.94;99504.10;1700641;84;21007;-79
2022/05/11 04:27:10;;;;;;;8.58;4.08;;;;;;;9.81;89.34;99495.38;1700657;84;20972;-81
2022/05/11 04:29:38;;;;;;;8.15;4.15;;;;;;;9.95;89.09;99512.48;1700540;84;21008;-78
2022/05/11 04:32:07;;;;;;;8.55;3.35;;;;;;;9.95;89.36;99501.23;1700562;84;21016;-79
2022/05/11 04:34:35;;;;;;;7.72;4.20;;;;;;;9.98;89.28;99507.66;1700981;84;20995;-78
2022/05/11 04:37:01;;;;;;;7.78;3.75;;;;;;;10.07;88.26;99512.72;1700093;84;20984;-78
2022/05/11 04:39:28;;;;;;;6.87;3.98;;;;;;;10.02;88.67;99518.42;1695698;84;21056;-79
2022/05/11 04:41:54;;;;;;;7.67;4.03;;;;;;;10.02;89.13;99510.63;1695763;84;21469;-77
2022/05/11 04:44:21;;;;;;;8.25;3.92;;;;;;;10.11;88.63;99503.14;1695182;84;21053;-84
2022/05/11 04:46:47;;;;;;;7.33;3.70;;;;;;;10.16;88.19;99506.05;1685866;84;21105;-82
2022/05/11 04:49:17;;;;;;;10.30;4.25;;;;;;;10.18;88.16;99510.39;1673517;85;21052;-82
2022/05/11 04:51:44;;;;;;;7.00;4.10;;;;;;;10.16;88.46;99506.05;1691660;84;20976;-78
2022/05/11 04:54:11;;;;;;;9.70;3.58;;;;;;;10.30;87.52;99511.05;1696396;83;20955;-80
2022/05/11 04:56:38;;;;;;;9.08;3.90;;;;;;;10.31;87.49;99506.73;1695790;84;21015;-80
2022/05/11 04:59:05;;;;;;;6.85;3.52;;;;;;;10.28;86.78;99519.28;1688800;84;21031;-79
2022/05/11 05:01:33;;;;;;;6.10;3.62;;;;;;;10.12;88.36;99512.19;1694451;84;21018;-78
2022/05/11 05:03:59;;;;;;;7.47;3.55;;;;;;;10.21;87.35;99522.89;1715228;81;20988;-80
2022/05/11 05:06:27;;;;;;;8.43;3.77;;;;;;;10.24;87.42;99512.87;1678230;84;20995;-79
2022/05/11 05:08:55;;;;;;;6.35;3.65;;;;;;;10.22;87.62;99515.95;1681892;84;20977;-78
2022/05/11 05:11:22;;;;;;;9.00;4.53;;;;;;;10.27;87.92;99511.54;1687244;84;20959;-78
2022/05/11 05:13:48;;;;;;;10.75;4.20;;;;;;;10.37;88.25;99518.32;1704453;83;20954;-80
2022/05/11 05:16:14;;;;;;;7.83;3.80;;;;;;;10.55;87.63;99520.58;1694581;84;21087;-80
2022/05/11 05:18:41;;;;;;;9.23;3.60;;;;;;;10.69;87.22;99520.33;1701400;83;21038;-79
2022/05/11 05:21:07;;;;;;;6.53;3.70;;;;;;;10.70;86.92;99518.16;1677401;85;20997;-79
2022/05/11 05:23:35;;;;;;;7.58;3.50;;;;;;;10.78;87.09;99524.94;1698995;84;20991;-80
2022/05/11 05:26:02;;;;;;;7.67;3.72;;;;;;;10.95;86.97;99525.48;1678402;84;20994;-81
2022/05/11 05:31:21;;;;;;;7.50;3.72;;;;;;;11.18;85.74;99532.83;1691701;84;21009;-79
2022/05/11 05:33:49;;;;;;;8.93;4.62;;;;;;;11.16;85.02;99542.42;1711938;83;20953;-79
2022/05/11 05:36:16;;;;;;;7.75;4.42;;;;;;;11.25;84.76;99542.66;1677312;84;21028;-81
2022/05/11 05:38:43;;;;;;;8.70;4.00;;;;;;;11.34;84.38;99544.63;1744911;82;20924;-78
2022/05/11 05:41:11;;;;;;;9.95;3.83;;;;;;;11.32;84.03;99541.63;1743158;82;20996;-79
2022/05/11 05:43:38;;;;;;;8.98;4.08;;;;;;;11.37;83.63;99537.19;1744129;82;20917;-79
2022/05/11 05:46:06;;;;;;;8.85;3.77;;;;;;;11.39;84.20;99542.38;1735056;81;21438;-78
2022/05/11 05:48:32;;;;;;;6.90;3.50;;;;;;;11.52;84.00;99547.28;1735537;82;21451;-78
2022/05/11 05:51:06;;;;;;;8.95;4.10;;;;;;;11.52;83.77;99541.23;1742732;80;21000;-78
2022/05/11 05:53:34;;;;;;;8.73;4.12;;;;;;;11.63;83.80;99544.88;1739206;82;21058;-77
2022/05/11 05:56:01;;;;;;;8.23;3.83;;;;;;;11.71;83.42;99543.81;1732009;82;20988;-77
2022/05/11 05:58:28;;;;;;;10.78;4.10;;;;;;;11.69;83.15;99548.20;1730718;82;21456;-77
2022/05/11 06:00:55;;;;;;;9.40;3.92;;;;;;;11.72;83.24;99543.39;1737577;82;20957;-79
2022/05/11 06:03:26;;;;;;;10.53;4.28;;;;;;;11.81;83.02;99547.52;1744042;82;21016;-78
2022/05/11 06:05:52;;;;;;;7.75;3.98;;;;;;;11.80;83.40;99549.28;1742096;82;20941;-77
2022/05/11 06:08:20;;;;;;;8.80;4.25;;;;;;;11.93;83.54;99549.88;1726419;81;21745;-78
2022/05/11 06:10:48;;;;;;;8.30;3.92;;;;;;;12.05;82.96;99549.58;1737983;82;20976;-80
2022/05/11 06:13:20;;;;;;;9.55;4.97;;;;;;;12.16;83.15;99556.30;1728660;82;21520;-78
2022/05/11 06:15:46;;;;;;;9.88;4.60;;;;;;;12.30;82.50;99550.30;1745689;82;20977;-78
2022/05/11 06:18:13;;;;;;;11.65;4.95;;;;;;;12.37;82.28;99544.02;1730129;82;21043;-77
2022/05/11 06:20:40;;;;;;;11.65;5.22;;;;;;;12.45;81.79;99551.20;1732127;82;20972;-79
2022/05/11 06:23:07;;;;;;;10.10;4.55;;;;;;;12.51;81.16;99551.49;1727247;82;20975;-79
2022/05/11 06:25:37;;;;;;;14.03;5.22;;;;;;;12.54;81.34;99541.84;1739349;82;21448;-77
2022/05/11 06:28:11;;;;;;;12.58;4.80;;;;;;;12.62;81.25;99549.47;1729409;81;21037;-79
2022/05/11 06:30:35;;;;;;;12.07;5.20;;;;;;;12.69;80.81;99547.55;1725395;82;20925;-78
2022/05/11 06:33:03;;;;;;;11.10;5.25;;;;;;;12.73;80.52;99546.14;1751730;82;21011;-79
2022/05/11 06:35:30;;;;;;;10.32;5.42;;;;;;;12.79;80.60;99537.72;1733378;81;20944;-81
2022/05/11 06:38:03;;;;;;;13.08;5.33;;;;;;;12.87;80.28;99532.73;1743648;82;21012;-78
2022/05/11 06:40:30;;;;;;;;;;;;;;;13.02;80.13;99536.65;1748022;82;20956;-80
2022/05/11 06:42:56;;;;;;;11.22;5.35;;;;;;;13.11;79.92;99531.61;1753323;82;20414;-81
2022/05/11 06:45:23;;;;;;;15.75;5.25;;;;;;;13.17;80.21;99524.94;1748521;82;20956;-78
2022/05/11 06:47:50;;;;;;;10.35;5.30;;;;;;;13.35;79.64;99526.61;1687966;85;20989;-81
2022/05/11 06:50:17;;;;;;;12.35;5.58;;;;;;;13.46;78.95;99531.07;1668411;85;21032;-80
2022/05/11 06:52:44;;;;;;;16.75;6.10;;;;;;;13.68;78.55;99528.20;1702481;84;20988;-81
2022/05/11 07:00:43;;;;;;;8.20;3.90;;;;;;;14.14;76.06;99511.50;1725897;82;20995;-79
2022/05/11 07:03:09;;;;;;;10.93;4.20;;;;;;;14.26;74.34;99497.17;1742626;82;21092;-81
2022/05/11 07:05:36;;;;;;;9.23;4.45;;;;;;;14.46;74.65;99501.29;1738511;82;21468;-80
2022/05/11 07:08:03;;;;;;;8.13;4.30;;;;;;;14.64;73.04;99502.88;1749642;82;21133;-78
2022/05/11 07:10:31;;;;;;;8.28;4.28;;;;;;;14.80;73.13;99495.33;1754802;81;21456;-80
2022/05/11 07:12:57;;;;;;;9.08;3.80;;;;;;;14.96;73.30;99499.55;1755557;81;20972;-80
2022/05/11 07:15:25;;;;;;;5.03;2.67;;;;;;;15.14;70.70;99502.83;1746970;82;20967;-80
2022/05/11 07:17:55;;;;;;;6.35;2.90;;;;;;;15.29;72.14;99489.13;1755469;81;21650;-80
2022/05/11 07:20:33;;;;;;;7.90;3.27;;;;;;;15.47;68.71;99491.96;1754774;82;21015;-80
2022/05/11 07:22:57;;;;;;;7.53;3.25;;;;;;;15.66;69.66;99490.80;1743684;81;21492;-80
2022/05/11 07:25:25;;;;;;;6.37;2.75;;;;;;;15.87;68.27;99483.86;1748335;82;21012;-79
2022/05/11 07:27:57;;;;;;;5.70;2.62;;;;;;;16.01;67.18;99483.29;1752879;81;21024;-80
2022/05/11 07:30:32;;;;;;;4.90;2.55;;;;;;;16.17;66.63;99487.44;1741256;82;20990;-80
2022/05/11 07:33:00;;;;;;;5.62;2.30;;;;;;;16.33;66.83;99485.03;1750458;81;21051;-80
2022/05/11 07:35:28;;;;;;;6.60;2.70;;;;;;;16.46;65.19;99484.44;1755051;82;20979;-79
2022/05/11 07:37:55;;;;;;;6.03;2.70;;;;;;;16.62;65.11;99489.87;1755590;81;20972;-79
2022/05/11 07:40:23;;;;;;;8.08;2.70;;;;;;;16.76;61.91;99486.64;1755093;81;20968;-78
2022/05/11 07:42:50;;;;;;;8.73;2.67;;;;;;;16.89;63.44;99485.66;1755817;82;21044;-81
2022/05/11 07:45:18;;;;;;;6.75;2.35;;;;;;;16.98;63.05;99482.63;1755823;81;21003;-80
2022/05/11 07:47:44;;;;;;;4.60;2.33;;;;;;;17.15;62.18;99480.56;1755877;81;20968;-80
2022/05/11 07:50:14;;;;;;;6.97;2.25;;;;;;;17.27;61.68;99471.27;1754228;80;21036;-80
2022/05/11 07:52:45;;;;;;;5.92;2.10;;;;;;;17.38;61.39;99475.53;1746988;82;21004;-79
2022/05/11 07:55:14;;;;;;;7.47;2.95;;;;;;;17.55;61.20;99480.01;1749416;82;20985;-80
2022/05/11 08:00:26;;;;;;;8.90;2.47;;;;;;;17.81;59.01;99485.80;1738747;82;20977;-79
2022/05/11 08:02:53;;;;;;;5.60;2.70;;;;;;;17.96;59.65;99476.31;1745930;82;21464;-79
2022/05/11 08:05:21;;;;;;;5.92;2.22;;;;;;;18.13;60.04;99473.70;1734364;82;20960;-80
2022/05/11 08:07:55;;;;;;;8.78;2.80;;;;;;;18.29;58.63;99479.89;1730708;82;20976;-79
2022/05/11 08:10:33;;;;;;;4.12;2.27;;;;;;;18.40;57.14;99472.78;1731346;82;20928;-81
2022/05/11 08:13:04;;;;;;;4.90;2.35;;;;;;;18.48;55.91;99465.78;1741967;82;20991;-79
2022/05/11 08:15:32;;;;;;;3.15;1.95;;;;;;;18.63;56.32;99470.25;1724125;82;20941;-80
2022/05/11 08:18:00;;;;;;;4.30;2.22;;;;;;;18.72;54.42;99464.99;1731037;82;21028;-80
2022/05/11 08:20:34;;;;;;;7.20;2.40;;;;;;;18.82;54.02;99476.77;1725349;82;21047;-80
2022/05/11 08:23:02;;;;;;;4.50;2.50;;;;;;;18.86;54.05;99471.72;1740632;81;20980;-78
2022/05/11 08:25:31;;;;;;;6.50;2.02;;;;;;;18.98;52.71;99471.97;1722934;82;21432;-79
2022/05/11 08:27:58;;;;;;;4.83;2.52;;;;;;;19.09;53.78;99468.30;1738409;82;20969;-80
2022/05/11 08:33:27;;;;;;;4.90;2.10;;;;;;;19.30;52.46;99465.42;1748673;82;20980;-80
2022/05/11 08:35:57;;;;;;;6.53;2.25;;;;;;;19.33;51.88;99462.63;1723406;81;20975;-81
2022/05/11 08:38:28;;;;;;;3.22;2.00;;;;;;;19.45;52.52;99456.67;1746964;81;20969;-79
2022/05/11 08:41:06;;;;;;;3.75;2.08;;;;;;;19.55;51.70;99458.33;1722548;82;21460;-79
2022/05/11 08:43:35;;;;;;;9.08;2.30;;;;;;;19.62;52.10;99455.73;1749421;82;20941;-79
2022/05/11 08:46:38;;;;;;;4.40;2.40;;;;;;;19.71;51.13;99455.67;1722867;82;21011;-78
2022/05/11 08:49:10;;;;;;;4.85;2.27;;;;;;;19.79;51.45;99452.15;1725044;82;20984;-81
2022/05/11 08:51:57;;;;;;;5.22;2.27;;;;;;;19.91;51.17;99451.44;1722737;82;21889;-79
2022/05/11 08:54:50;;;;;;;4.40;2.25;;;;;;;19.99;49.19;99453.63;1735412;82;20999;-78
2022/05/11 08:57:23;;;;;;;7.17;2.02;;;;;;;20.05;49.77;99454.15;1725371;82;20980;-78
2022/05/11 08:59:54;;;;;;;4.45;2.35;;;;;;;20.14;50.62;99450.59;1741415;82;20981;-77
2022/05/11 09:02:47;;;;;;;7.92;2.92;;;;;;;20.21;50.53;99451.45;1719222;82;21016;-79
2022/05/11 09:05:18;;;;;;;6.67;2.30;;;;;;;20.36;50.25;99440.44;1723047;83;20976;-79
2022/05/11 09:07:47;;;;;;;9.65;2.40;;;;;;;20.55;48.22;99441.95;1722401;82;21000;-80
2022/05/11 09:10:22;;;;;;;8.83;2.65;;;;;;;20.73;49.30;99435.61;1722823;83;21032;-80
2022/05/11 09:13:06;;;;;;;7.67;2.67;;;;;;;20.89;49.12;99442.56;1722293;82;21476;-79
2022/05/11 09:15:56;;;;;;;4.37;2.55;;;;;;;21.05;48.03;99437.55;1722756;83;21000;-80
2022/05/11 09:18:39;;;;;;;5.58;2.10;;;;;;;21.20;47.47;99434.88;1722665;83;21036;-78
2022/05/11 09:21:29;;;;;;;7.42;2.58;;;;;;;21.36;46.03;99442.68;1722905;83;21004;-77
2022/05/11 09:24:21;;;;;;;6.90;2.60;;;;;;;21.43;43.64;99439.58;1722928;83;20980;-78
2022/05/11 09:27:07;;;;;;;5.28;2.33;;;;;;;21.61;44.71;99431.41;1750781;82;20987;-79
2022/05/11 09:29:42;;;;;;;8.60;2.37;;;;;;;21.67;46.26;99422.22;1752776;82;20972;-79
2022/05/11 09:32:23;;;;;;;8.48;2.47;;;;;;;21.79;46.52;99422.73;1752707;82;21060;-79
2022/05/11 09:34:50;;;;;;;5.20;2.70;;;;;;;21.84;44.35;99425.91;1752734;81;20976;-79
2022/05/11 09:37:31;;;;;;;8.90;2.10;;;;;;;21.92;41.84;99430.20;1752783;81;21000;-79
2022/05/11 09:40:21;;;;;;;4.95;2.50;;;;;;;22.00;44.25;99426.59;1752375;81;21000;-78
2022/05/11 09:42:52;;;;;;;5.65;2.50;;;;;;;22.07;44.70;99419.56;1752701;82;21008;-79
2022/05/11 09:45:47;;;;;;;6.83;2.58;;;;;;;22.02;45.05;99426.02;1751705;82;21012;-78
2022/05/11 09:48:18;;;;;;;4.92;2.12;;;;;;;22.14;44.09;99419.50;1752660;82;21004;-79
2022/05/11 09:50:52;;;;;;;7.83;2.17;;;;;;;22.32;43.99;99420.08;1752969;80;21003;-79
2022/05/11 09:53:31;;;;;;;5.43;2.57;;;;;;;22.42;44.26;99417.16;1715376;83;21089;-77
2022/05/11 09:56:21;;;;;;;4.87;2.10;;;;;;;22.52;42.65;99417.38;1701222;84;21071;-79
2022/05/11 09:58:48;;;;;;;4.70;2.27;;;;;;;22.55;38.45;99423.80;1701217;84;21098;-79
2022/05/11 10:01:27;;;;;;;5.30;2.10;;;;;;;22.65;41.04;99422.20;1701110;84;20991;-78
2022/05/11 10:04:05;;;;;;;6.87;2.17;;;;;;;22.69;41.04;99426.81;1701134;84;21110;-79
2022/05/11 10:06:37;;;;;;;5.15;2.00;;;;;;;22.73;42.12;99422.99;1701176;84;21054;-79
2022/05/11 10:09:06;;;;;;;7.58;2.50;;;;;;;22.89;40.46;99431.55;1700938;84;21055;-78
2022/05/11 10:11:43;;;;;;;6.10;2.02;;;;;;;22.96;39.54;99426.65;1701052;84;20992;-78
2022/05/11 10:23:17;;;;;;;6.95;2.05;;;;;;;23.50;37.62;99421.02;1701076;84;20995;-79
2022/05/11 10:25:52;;;;;;;6.05;2.22;;;;;;;23.65;36.77;99412.88;1701064;84;21024;-78
2022/05/11 10:28:43;;;;;;;5.03;2.00;;;;;;;23.97;36.64;99415.80;1701063;84;21059;-79
2022/05/11 10:31:35;;;;;;;4.53;1.90;;;;;;;24.20;35.50;99404.76;1701140;84;21537;-79
2022/05/11 10:34:22;;;;;;;4.03;2.10;;;;;;;24.33;34.41;99405.97;1701380;83;20979;-79
2022/05/11 10:37:08;;;;;;;5.60;1.87;;;;;;;24.22;31.72;99412.13;1701045;84;21059;-79
2022/05/11 10:39:52;;;;;;;6.25;2.20;;;;;;;24.09;30.08;99406.89;1700234;84;20977;-80
2022/05/11 10:42:35;;;;;;;4.83;1.80;;;;;;;24.10;31.71;99395.31;1701092;83;21003;-77
2022/05/11 10:45:16;;;;;;;9.93;2.00;;;;;;;24.22;33.23;99397.03;1701376;84;20992;-78
2022/05/11 10:48:37;;;;;;;4.78;1.85;;;;;;;24.34;33.01;99401.88;1681174;84;21066;-80
2022/05/11 10:51:25;;;;;;;6.15;2.10;;;;;;;24.46;31.40;99407.22;1694700;84;21019;-79
2022/05/11 10:54:06;;;;;;;5.87;2.25;;;;;;;24.42;31.43;99402.12;1696068;84;20964;-77
2022/05/11 10:57:11;;;;;;;18.85;5.55;;;;;;;24.55;32.12;99402.52;1698569;84;20992;-80
2022/05/11 11:00:02;;;;;;;8.50;3.72;;;;;;;24.69;31.65;99394.80;1692655;84;21039;-80
2022/05/11 11:03:18;;;;;;;6.72;2.27;;;;;;;24.86;31.32;99386.83;1697016;84;20975;-79
2022/05/11 11:09:13;;;;;;;6.35;2.10;;;;;;;25.24;32.08;99401.05;1693876;84;20973;-80
2022/05/11 11:12:23;;;;;;;3.00;1.60;;;;;;;25.33;32.61;99391.48;1691852;84;20987;-78
2022/05/11 11:14:54;;;;;;;5.15;2.20;;;;;;;25.50;31.60;99395.41;1695711;84;21019;-80
2022/05/11 11:17:23;;;;;;;4.12;2.20;;;;;;;25.56;30.85;99388.25;1700374;84;21058;-79
2022/05/11 11:19:57;;;;;;;5.72;2.10;;;;;;;25.57;30.08;99390.78;1689646;84;20936;-79
2022/05/11 11:22:24;;;;;;;10.25;2.12;;;;;;;25.50;28.01;99402.06;1687865;84;21013;-78
2022/05/11 11:25:04;;;;;;;5.87;2.10;;;;;;;25.52;30.66;99391.64;1701830;83;21009;-79
2022/05/11 11:28:15;;;;;;;3.80;1.90;;;;;;;25.50;29.27;99388.27;1668441;85;21872;-78
2022/05/11 11:31:03;;;;;;;3.17;1.87;;;;;;;25.69;30.86;99378.28;1682480;85;21065;-79
2022/05/11 11:33:33;;;;;;;4.25;2.05;;;;;;;25.92;29.52;99380.84;1686270;85;21021;-78
2022/05/11 11:36:05;;;;;;;7.05;2.00;;;;;;;26.09;28.86;99368.28;1684715;84;21030;-77
2022/05/11 11:38:47;;;;;;;4.33;2.05;;;;;;;26.19;29.03;99372.33;1714578;83;20977;-78
2022/05/11 11:41:23;;;;;;;5.08;1.80;;;;;;;26.16;30.05;99376.58;1704111;83;21085;-78
2022/05/11 11:43:58;;;;;;;2.62;1.70;;;;;;;26.01;28.69;99380.58;1701591;83;21032;-78
2022/05/11 11:46:44;;;;;;;5.33;2.00;;;;;;;25.83;29.12;99374.45;1673721;85;21048;-79
2022/05/11 11:49:27;;;;;;;3.00;1.80;;;;;;;25.86;29.43;99376.84;1698548;84;20956;-79
2022/05/11 11:51:58;;;;;;;6.03;1.67;;;;;;;26.03;30.30;99370.63;1686041;83;21036;-79
2022/05/11 11:54:43;;;;;;;4.72;2.08;;;;;;;25.91;28.79;99366.69;1691997;83;20984;-79
2022/05/11 11:57:26;;;;;;;3.72;1.90;;;;;;;25.95;28.71;99372.12;1685415;84;21107;-79
2022/05/11 12:00:00;;;;;;;5.25;2.22;;;;;;;26.02;28.86;99365.77;1696513;84;21051;-79
2022/05/11 12:02:38;;;;;;;4.70;2.08;;;;;;;26.04;28.92;99365.64;1686568;84;21534;-78
2022/05/11 12:05:26;;;;;;;6.70;2.00;;;;;;;26.18;29.15;99366.63;1689785;84;21460;-79
2022/05/11 12:16:53;;;;;;;4.00;1.80;;;;;;;27.10;28.24;99359.10;1683325;84;20991;-79
2022/05/11 12:19:25;;;;;;;7.25;2.08;;;;;;;27.14;28.79;99352.01;1677320;84;21007;-79
2022/05/11 12:22:22;;;;;;;6.33;2.55;;;;;;;27.25;28.12;99356.89;1696887;84;21451;-79
2022/05/11 12:24:59;;;;;;;8.10;2.40;;;;;;;27.29;29.26;99347.13;1679282;84;21535;-80
2022/05/11 12:27:35;;;;;;;6.97;2.10;;;;;;;28.06;28.49;99341.91;1690618;84;21023;-80
2022/05/11 12:30:07;;;;;;;4.62;2.30;;;;;;;28.96;27.13;99345.26;1677576;83;20991;-79
2022/05/11 12:32:40;;;;;;;6.97;2.02;;;;;;;29.09;25.08;99346.75;1693975;84;21045;-77
2022/05/11 12:35:29;;;;;;;4.30;2.10;;;;;;;29.07;27.05;99337.53;1679555;84;21042;-79
2022/05/11 12:38:03;;;;;;;6.40;2.30;;;;;;;28.85;26.11;99342.81;1695114;83;21031;-79
2022/05/11 12:40:34;;;;;;;5.80;2.30;;;;;;;29.13;26.61;99340.97;1697167;84;21007;-79